Airport View

Enter AWOS ICAO identifier for current METAR.

ex. KFNL

KCKM 080635Z AUTO 00000KT 10SM 22/22 A3010 RMK A01

8 Aug 2020 06:31

Frequency: 120.675

Phone: 662-624-9777

Other Area AWOS: KUTA - KPMU - KRNV - KUOX

TAF KMEM 080520Z 0806/0912 07005KT P6SM FEW250 FM081400 18004KT P6SM FEW250 FM081800 23005KT P6SM FEW250 FM090300 16003KT P6SM FEW250